Portada
METAR-TAF:

METAR-TAF

Aeropuertos :

Aeropuerto Internacional de Yibuti-Ambouli

Yibuti, Yibuti

latitud: 11-33N, longitud: 043-10E, altitud: 49 m

Observación

El informe se hizo hace 2 horas y 8 minutos, a las 09:00 UTC
Viento 9 kt del este
Temperatura 37°C
Humedad 31%
Presión 1007 hPa
Visibilidad 10 km o más
sin nubes por debajo de 1500 m y sin presencia de cumulonimbus.

METAR: HDAM 230900Z 08009KT CAVOK 37/17 Q1007

Hora: 14:08 (11:08 UTC)

Pronóstico

El informe se hizo hace 6 horas y 8 minutos, a las 05:00 UTC
Pronóstico válido del 23 a las 06 UTC al 24 a las 06 UTC
Viento 10 kt del este
Visibilidad 10 km o más
Nubes dispersas a una altura de 2300 ft
Evolucionando progresivamente
del 23 a las 12 UTC al 24 a las 06 UTC
Viento 3 kt con dirección variable
Nubes dispersas a una altura de 2000 ft
Nubes dispersas a una altura de 3000 ft

TAF: HDAM 230500Z 2306/2406 10010KT 9999 SCT023 BECMG 2312/2406 VRB03KT SCT020 SCT030

Observaciones y pronósticos meteorológicos de más de 4000 aeropuertos (mensajes METAR y TAF).

Los puntos amarillos y rojos representan las estaciones disponibles.

Ponga el ratón en el punto deseado para ver el nombre de la estación.

Haga clic para ver las observaciones y los pronósticos meteorológicos.

Para cambiar el mapa : haga clic en los botones verdes con una cruz de color negro para hacer un zoom, en el botón verde con un guión para alejar o en las flechas verdes para mapas adyacentes.


METAR-TAF: